sensor_id;sensor_type;location;lat;lon;timestamp;P1;durP1;ratioP1;P2;durP2;ratioP2
50858;SDS011;36826;47.514;19.056;2022-07-21T00:02:28;4.57;;;1.20;;
50858;SDS011;36826;47.514;19.056;2022-07-21T00:04:54;2.28;;;1.10;;
50858;SDS011;36826;47.514;19.056;2022-07-21T00:07:19;4.57;;;1.25;;
50858;SDS011;36826;47.514;19.056;2022-07-21T00:09:45;8.15;;;1.40;;
50858;SDS011;36826;47.514;19.056;2022-07-21T00:12:11;2.70;;;1.10;;
50858;SDS011;36826;47.514;19.056;2022-07-21T00:14:36;4.43;;;1.35;;
50858;SDS011;36826;47.514;19.056;2022-07-21T00:17:02;2.85;;;1.10;;
50858;SDS011;36826;47.514;19.056;2022-07-21T00:19:28;4.03;;;1.10;;
50858;SDS011;36826;47.514;19.056;2022-07-21T00:21:53;5.55;;;1.15;;
50858;SDS011;36826;47.514;19.056;2022-07-21T00:24:19;7.50;;;1.40;;
50858;SDS011;36826;47.514;19.056;2022-07-21T00:26:44;4.05;;;1.20;;
50858;SDS011;36826;47.514;19.056;2022-07-21T00:29:10;3.28;;;1.20;;
50858;SDS011;36826;47.514;19.056;2022-07-21T00:31:36;4.32;;;1.23;;
50858;SDS011;36826;47.514;19.056;2022-07-21T00:34:01;2.53;;;0.88;;
50858;SDS011;36826;47.514;19.056;2022-07-21T00:36:27;4.53;;;0.98;;
50858;SDS011;36826;47.514;19.056;2022-07-21T00:38:52;6.65;;;1.35;;
50858;SDS011;36826;47.514;19.056;2022-07-21T00:41:18;3.03;;;1.05;;
50858;SDS011;36826;47.514;19.056;2022-07-21T00:43:43;2.80;;;1.00;;
50858;SDS011;36826;47.514;19.056;2022-07-21T00:46:09;3.72;;;1.35;;
50858;SDS011;36826;47.514;19.056;2022-07-21T00:48:34;3.90;;;1.10;;
50858;SDS011;36826;47.514;19.056;2022-07-21T00:51:00;4.75;;;1.17;;
50858;SDS011;36826;47.514;19.056;2022-07-21T00:53:25;3.63;;;1.13;;
50858;SDS011;36826;47.514;19.056;2022-07-21T00:55:51;4.57;;;1.10;;
50858;SDS011;36826;47.514;19.056;2022-07-21T00:58:16;3.22;;;1.02;;
50858;SDS011;36826;47.514;19.056;2022-07-21T01:00:42;4.10;;;1.10;;
50858;SDS011;36826;47.514;19.056;2022-07-21T01:03:08;2.97;;;1.20;;
50858;SDS011;36826;47.514;19.056;2022-07-21T01:05:33;6.30;;;1.23;;
50858;SDS011;36826;47.514;19.056;2022-07-21T01:07:59;3.58;;;1.00;;
50858;SDS011;36826;47.514;19.056;2022-07-21T01:10:27;2.00;;;0.90;;
50858;SDS011;36826;47.514;19.056;2022-07-21T01:12:54;3.72;;;1.15;;
50858;SDS011;36826;47.514;19.056;2022-07-21T01:15:20;4.20;;;1.10;;
50858;SDS011;36826;47.514;19.056;2022-07-21T01:17:46;2.50;;;1.17;;
50858;SDS011;36826;47.514;19.056;2022-07-21T01:20:16;2.30;;;1.15;;
50858;SDS011;36826;47.514;19.056;2022-07-21T01:22:44;3.78;;;1.10;;
50858;SDS011;36826;47.514;19.056;2022-07-21T01:25:11;4.70;;;1.30;;
50858;SDS011;36826;47.514;19.056;2022-07-21T01:27:37;3.88;;;1.20;;
50858;SDS011;36826;47.514;19.056;2022-07-21T01:30:04;2.63;;;0.80;;
50858;SDS011;36826;47.514;19.056;2022-07-21T01:32:33;4.90;;;0.82;;
50858;SDS011;36826;47.514;19.056;2022-07-21T01:34:59;2.05;;;0.90;;
50858;SDS011;36826;47.514;19.056;2022-07-21T01:37:27;3.15;;;0.90;;
50858;SDS011;36826;47.514;19.056;2022-07-21T01:39:54;4.72;;;1.40;;
50858;SDS011;36826;47.514;19.056;2022-07-21T01:42:38;1.85;;;1.02;;
50858;SDS011;36826;47.514;19.056;2022-07-21T01:45:04;3.58;;;0.93;;
50858;SDS011;36826;47.514;19.056;2022-07-21T01:47:30;2.90;;;1.20;;
50858;SDS011;36826;47.514;19.056;2022-07-21T01:49:56;4.13;;;1.20;;
50858;SDS011;36826;47.514;19.056;2022-07-21T01:52:21;4.65;;;1.40;;
50858;SDS011;36826;47.514;19.056;2022-07-21T01:54:47;2.53;;;1.15;;
50858;SDS011;36826;47.514;19.056;2022-07-21T01:57:12;3.40;;;1.10;;
50858;SDS011;36826;47.514;19.056;2022-07-21T01:59:38;3.42;;;1.10;;
50858;SDS011;36826;47.514;19.056;2022-07-21T02:02:03;4.85;;;1.10;;
50858;SDS011;36826;47.514;19.056;2022-07-21T02:04:29;3.15;;;0.90;;
50858;SDS011;36826;47.514;19.056;2022-07-21T02:06:55;3.55;;;1.10;;
50858;SDS011;36826;47.514;19.056;2022-07-21T02:09:21;2.67;;;0.88;;
50858;SDS011;36826;47.514;19.056;2022-07-21T02:11:46;2.63;;;1.10;;
50858;SDS011;36826;47.514;19.056;2022-07-21T02:14:12;5.00;;;1.10;;
50858;SDS011;36826;47.514;19.056;2022-07-21T02:16:37;3.85;;;0.93;;
50858;SDS011;36826;47.514;19.056;2022-07-21T02:19:03;2.97;;;0.98;;
50858;SDS011;36826;47.514;19.056;2022-07-21T02:21:29;4.40;;;1.13;;
50858;SDS011;36826;47.514;19.056;2022-07-21T02:23:54;2.78;;;0.98;;
50858;SDS011;36826;47.514;19.056;2022-07-21T02:26:20;2.95;;;1.23;;
50858;SDS011;36826;47.514;19.056;2022-07-21T02:28:46;3.45;;;1.23;;
50858;SDS011;36826;47.514;19.056;2022-07-21T02:31:12;5.63;;;1.50;;
50858;SDS011;36826;47.514;19.056;2022-07-21T02:33:38;2.83;;;1.20;;
50858;SDS011;36826;47.514;19.056;2022-07-21T02:36:04;2.97;;;1.10;;
50858;SDS011;36826;47.514;19.056;2022-07-21T02:38:29;3.85;;;1.33;;
50858;SDS011;36826;47.514;19.056;2022-07-21T02:40:55;2.15;;;1.10;;
50858;SDS011;36826;47.514;19.056;2022-07-21T02:43:20;3.85;;;1.20;;
50858;SDS011;36826;47.514;19.056;2022-07-21T02:45:46;7.03;;;1.40;;
50858;SDS011;36826;47.514;19.056;2022-07-21T02:48:12;4.93;;;1.20;;
50858;SDS011;36826;47.514;19.056;2022-07-21T02:50:39;3.38;;;1.25;;
50858;SDS011;36826;47.514;19.056;2022-07-21T02:53:07;3.75;;;1.10;;
50858;SDS011;36826;47.514;19.056;2022-07-21T02:55:37;3.03;;;1.30;;
50858;SDS011;36826;47.514;19.056;2022-07-21T03:00:28;5.55;;;1.30;;
50858;SDS011;36826;47.514;19.056;2022-07-21T03:02:54;6.03;;;1.20;;
50858;SDS011;36826;47.514;19.056;2022-07-21T03:05:20;3.42;;;1.00;;
50858;SDS011;36826;47.514;19.056;2022-07-21T03:07:45;2.67;;;1.15;;
50858;SDS011;36826;47.514;19.056;2022-07-21T03:10:11;6.68;;;1.33;;
50858;SDS011;36826;47.514;19.056;2022-07-21T03:12:36;3.95;;;1.40;;
50858;SDS011;36826;47.514;19.056;2022-07-21T03:15:02;2.60;;;1.20;;
50858;SDS011;36826;47.514;19.056;2022-07-21T03:17:27;6.88;;;1.20;;
50858;SDS011;36826;47.514;19.056;2022-07-21T03:19:53;3.88;;;1.30;;
50858;SDS011;36826;47.514;19.056;2022-07-21T03:22:18;3.65;;;1.30;;
50858;SDS011;36826;47.514;19.056;2022-07-21T03:24:44;3.25;;;1.10;;
50858;SDS011;36826;47.514;19.056;2022-07-21T03:27:09;4.35;;;1.42;;
50858;SDS011;36826;47.514;19.056;2022-07-21T03:29:35;10.05;;;1.25;;
50858;SDS011;36826;47.514;19.056;2022-07-21T03:32:00;2.70;;;1.35;;
50858;SDS011;36826;47.514;19.056;2022-07-21T03:34:25;6.32;;;1.40;;
50858;SDS011;36826;47.514;19.056;2022-07-21T03:36:51;3.38;;;1.40;;
50858;SDS011;36826;47.514;19.056;2022-07-21T03:39:16;3.20;;;1.42;;
50858;SDS011;36826;47.514;19.056;2022-07-21T03:41:42;3.65;;;1.38;;
50858;SDS011;36826;47.514;19.056;2022-07-21T03:44:07;3.13;;;1.20;;
50858;SDS011;36826;47.514;19.056;2022-07-21T03:46:33;6.57;;;1.58;;
50858;SDS011;36826;47.514;19.056;2022-07-21T03:48:58;2.90;;;1.30;;
50858;SDS011;36826;47.514;19.056;2022-07-21T03:51:23;4.03;;;1.83;;
50858;SDS011;36826;47.514;19.056;2022-07-21T03:53:49;7.22;;;2.47;;
50858;SDS011;36826;47.514;19.056;2022-07-21T03:56:14;6.60;;;1.77;;
50858;SDS011;36826;47.514;19.056;2022-07-21T03:58:40;5.80;;;1.30;;
50858;SDS011;36826;47.514;19.056;2022-07-21T04:01:05;4.75;;;1.70;;
50858;SDS011;36826;47.514;19.056;2022-07-21T04:03:31;3.67;;;1.13;;
50858;SDS011;36826;47.514;19.056;2022-07-21T04:05:58;5.45;;;1.92;;
50858;SDS011;36826;47.514;19.056;2022-07-21T04:08:24;4.43;;;1.75;;
50858;SDS011;36826;47.514;19.056;2022-07-21T04:10:50;3.60;;;1.23;;
50858;SDS011;36826;47.514;19.056;2022-07-21T04:13:16;3.70;;;1.70;;
50858;SDS011;36826;47.514;19.056;2022-07-21T04:15:41;4.03;;;1.30;;
50858;SDS011;36826;47.514;19.056;2022-07-21T04:18:07;3.42;;;1.40;;
50858;SDS011;36826;47.514;19.056;2022-07-21T04:20:33;6.43;;;1.60;;
50858;SDS011;36826;47.514;19.056;2022-07-21T04:22:58;5.68;;;1.20;;
50858;SDS011;36826;47.514;19.056;2022-07-21T04:25:24;4.90;;;1.48;;
50858;SDS011;36826;47.514;19.056;2022-07-21T04:27:50;5.50;;;1.70;;
50858;SDS011;36826;47.514;19.056;2022-07-21T04:30:18;3.45;;;1.80;;
50858;SDS011;36826;47.514;19.056;2022-07-21T04:32:46;3.60;;;1.30;;
50858;SDS011;36826;47.514;19.056;2022-07-21T04:35:12;6.35;;;1.30;;
50858;SDS011;36826;47.514;19.056;2022-07-21T04:37:38;7.60;;;1.58;;
50858;SDS011;36826;47.514;19.056;2022-07-21T04:40:05;5.05;;;1.13;;
50858;SDS011;36826;47.514;19.056;2022-07-21T04:42:32;4.93;;;1.60;;
50858;SDS011;36826;47.514;19.056;2022-07-21T04:44:59;6.05;;;1.88;;
50858;SDS011;36826;47.514;19.056;2022-07-21T04:47:25;5.05;;;1.60;;
50858;SDS011;36826;47.514;19.056;2022-07-21T04:49:50;6.90;;;1.90;;
50858;SDS011;36826;47.514;19.056;2022-07-21T04:52:16;4.88;;;1.67;;
50858;SDS011;36826;47.514;19.056;2022-07-21T04:54:41;6.15;;;1.70;;
50858;SDS011;36826;47.514;19.056;2022-07-21T04:57:07;4.43;;;1.30;;
50858;SDS011;36826;47.514;19.056;2022-07-21T04:59:33;4.83;;;1.63;;
50858;SDS011;36826;47.514;19.056;2022-07-21T05:01:59;4.15;;;1.58;;
50858;SDS011;36826;47.514;19.056;2022-07-21T05:04:25;4.90;;;1.30;;
50858;SDS011;36826;47.514;19.056;2022-07-21T05:06:51;5.93;;;1.50;;
50858;SDS011;36826;47.514;19.056;2022-07-21T05:09:16;3.83;;;1.60;;
50858;SDS011;36826;47.514;19.056;2022-07-21T05:11:42;4.60;;;1.60;;
50858;SDS011;36826;47.514;19.056;2022-07-21T05:14:08;5.03;;;1.70;;
50858;SDS011;36826;47.514;19.056;2022-07-21T05:16:33;6.57;;;1.70;;
50858;SDS011;36826;47.514;19.056;2022-07-21T05:18:59;3.63;;;1.23;;
50858;SDS011;36826;47.514;19.056;2022-07-21T05:21:24;6.60;;;1.40;;
50858;SDS011;36826;47.514;19.056;2022-07-21T05:23:49;4.30;;;1.53;;
50858;SDS011;36826;47.514;19.056;2022-07-21T05:26:15;6.53;;;1.47;;
50858;SDS011;36826;47.514;19.056;2022-07-21T05:28:40;6.93;;;1.37;;
50858;SDS011;36826;47.514;19.056;2022-07-21T05:31:06;6.80;;;1.70;;
50858;SDS011;36826;47.514;19.056;2022-07-21T05:33:32;4.88;;;1.60;;
50858;SDS011;36826;47.514;19.056;2022-07-21T05:35:58;7.87;;;1.90;;
50858;SDS011;36826;47.514;19.056;2022-07-21T05:38:23;6.60;;;1.47;;
50858;SDS011;36826;47.514;19.056;2022-07-21T05:40:49;6.50;;;1.48;;
50858;SDS011;36826;47.514;19.056;2022-07-21T05:52:56;4.23;;;1.63;;
50858;SDS011;36826;47.514;19.056;2022-07-21T05:55:21;8.45;;;1.77;;
50858;SDS011;36826;47.514;19.056;2022-07-21T05:57:47;4.93;;;1.75;;
50858;SDS011;36826;47.514;19.056;2022-07-21T06:00:13;8.70;;;2.00;;
50858;SDS011;36826;47.514;19.056;2022-07-21T06:02:39;7.15;;;2.08;;
50858;SDS011;36826;47.514;19.056;2022-07-21T06:05:05;7.60;;;2.10;;
50858;SDS011;36826;47.514;19.056;2022-07-21T06:07:33;6.35;;;1.83;;
50858;SDS011;36826;47.514;19.056;2022-07-21T06:09:59;9.98;;;2.22;;
50858;SDS011;36826;47.514;19.056;2022-07-21T06:12:26;7.50;;;2.05;;
50858;SDS011;36826;47.514;19.056;2022-07-21T06:14:51;11.45;;;1.95;;
50858;SDS011;36826;47.514;19.056;2022-07-21T06:17:17;8.00;;;1.92;;
50858;SDS011;36826;47.514;19.056;2022-07-21T06:19:43;8.77;;;2.30;;
50858;SDS011;36826;47.514;19.056;2022-07-21T06:22:09;9.07;;;2.03;;
50858;SDS011;36826;47.514;19.056;2022-07-21T06:24:34;8.88;;;2.72;;
50858;SDS011;36826;47.514;19.056;2022-07-21T06:27:00;9.38;;;2.35;;
50858;SDS011;36826;47.514;19.056;2022-07-21T06:29:25;8.18;;;2.20;;
50858;SDS011;36826;47.514;19.056;2022-07-21T06:31:51;8.77;;;2.50;;
50858;SDS011;36826;47.514;19.056;2022-07-21T06:34:16;6.10;;;2.80;;
50858;SDS011;36826;47.514;19.056;2022-07-21T06:36:42;3.85;;;2.17;;
50858;SDS011;36826;47.514;19.056;2022-07-21T06:39:07;4.70;;;2.08;;
50858;SDS011;36826;47.514;19.056;2022-07-21T06:41:33;4.68;;;2.33;;
50858;SDS011;36826;47.514;19.056;2022-07-21T06:43:58;5.20;;;2.50;;
50858;SDS011;36826;47.514;19.056;2022-07-21T06:46:24;6.25;;;3.00;;
50858;SDS011;36826;47.514;19.056;2022-07-21T06:48:49;3.60;;;2.50;;
50858;SDS011;36826;47.514;19.056;2022-07-21T06:51:15;4.40;;;2.10;;
50858;SDS011;36826;47.514;19.056;2022-07-21T06:53:41;4.78;;;2.22;;
50858;SDS011;36826;47.514;19.056;2022-07-21T06:56:07;6.50;;;2.30;;
50858;SDS011;36826;47.514;19.056;2022-07-21T06:58:33;7.72;;;2.50;;
50858;SDS011;36826;47.514;19.056;2022-07-21T07:00:59;5.80;;;2.15;;
50858;SDS011;36826;47.514;19.056;2022-07-21T07:03:24;5.63;;;1.98;;
50858;SDS011;36826;47.514;19.056;2022-07-21T07:05:50;6.68;;;2.05;;
50858;SDS011;36826;47.514;19.056;2022-07-21T07:08:16;8.07;;;2.03;;
50858;SDS011;36826;47.514;19.056;2022-07-21T07:10:42;7.10;;;1.83;;
50858;SDS011;36826;47.514;19.056;2022-07-21T07:13:08;4.45;;;1.90;;
50858;SDS011;36826;47.514;19.056;2022-07-21T07:15:34;7.18;;;2.10;;
50858;SDS011;36826;47.514;19.056;2022-07-21T07:18:00;4.85;;;1.90;;
50858;SDS011;36826;47.514;19.056;2022-07-21T07:20:25;5.40;;;3.03;;
50858;SDS011;36826;47.514;19.056;2022-07-21T07:22:51;4.18;;;2.33;;
50858;SDS011;36826;47.514;19.056;2022-07-21T07:25:16;5.15;;;2.05;;
50858;SDS011;36826;47.514;19.056;2022-07-21T07:27:49;5.00;;;2.38;;
50858;SDS011;36826;47.514;19.056;2022-07-21T07:30:16;7.75;;;2.42;;
50858;SDS011;36826;47.514;19.056;2022-07-21T07:32:42;4.97;;;2.00;;
50858;SDS011;36826;47.514;19.056;2022-07-21T07:35:09;3.88;;;2.35;;
50858;SDS011;36826;47.514;19.056;2022-07-21T07:37:36;6.85;;;2.38;;
50858;SDS011;36826;47.514;19.056;2022-07-21T07:40:04;4.07;;;2.17;;
50858;SDS011;36826;47.514;19.056;2022-07-21T07:42:32;4.88;;;2.30;;
50858;SDS011;36826;47.514;19.056;2022-07-21T07:44:58;6.32;;;3.42;;
50858;SDS011;36826;47.514;19.056;2022-07-21T07:47:24;5.18;;;2.40;;
50858;SDS011;36826;47.514;19.056;2022-07-21T07:49:49;2.67;;;2.15;;
50858;SDS011;36826;47.514;19.056;2022-07-21T07:52:17;3.05;;;2.17;;
50858;SDS011;36826;47.514;19.056;2022-07-21T07:54:43;3.95;;;1.98;;
50858;SDS011;36826;47.514;19.056;2022-07-21T07:57:09;4.30;;;2.40;;
50858;SDS011;36826;47.514;19.056;2022-07-21T07:59:34;3.20;;;2.20;;
50858;SDS011;36826;47.514;19.056;2022-07-21T08:02:00;4.65;;;2.28;;
50858;SDS011;36826;47.514;19.056;2022-07-21T08:04:25;3.05;;;2.40;;
50858;SDS011;36826;47.514;19.056;2022-07-21T08:06:50;4.35;;;2.42;;
50858;SDS011;36826;47.514;19.056;2022-07-21T08:09:16;4.55;;;2.55;;
50858;SDS011;36826;47.514;19.056;2022-07-21T08:11:43;4.43;;;2.65;;
50858;SDS011;36826;47.514;19.056;2022-07-21T08:14:11;4.47;;;2.50;;
50858;SDS011;36826;47.514;19.056;2022-07-21T08:16:37;3.53;;;2.17;;
50858;SDS011;36826;47.514;19.056;2022-07-21T08:19:02;3.10;;;2.30;;
50858;SDS011;36826;47.514;19.056;2022-07-21T08:21:28;5.32;;;2.40;;
50858;SDS011;36826;47.514;19.056;2022-07-21T08:23:55;6.03;;;2.20;;
50858;SDS011;36826;47.514;19.056;2022-07-21T08:26:23;7.55;;;2.42;;
50858;SDS011;36826;47.514;19.056;2022-07-21T08:28:48;7.20;;;2.28;;
50858;SDS011;36826;47.514;19.056;2022-07-21T08:31:14;7.57;;;2.17;;
50858;SDS011;36826;47.514;19.056;2022-07-21T08:33:39;3.95;;;2.40;;
50858;SDS011;36826;47.514;19.056;2022-07-21T08:36:05;5.30;;;2.47;;
50858;SDS011;36826;47.514;19.056;2022-07-21T08:38:31;4.63;;;2.40;;
50858;SDS011;36826;47.514;19.056;2022-07-21T08:40:56;4.00;;;2.80;;
50858;SDS011;36826;47.514;19.056;2022-07-21T08:43:22;5.25;;;2.80;;
50858;SDS011;36826;47.514;19.056;2022-07-21T08:45:49;4.85;;;2.45;;
50858;SDS011;36826;47.514;19.056;2022-07-21T08:48:14;3.50;;;2.60;;
50858;SDS011;36826;47.514;19.056;2022-07-21T08:50:44;4.10;;;2.38;;
50858;SDS011;36826;47.514;19.056;2022-07-21T08:53:10;6.80;;;2.15;;
50858;SDS011;36826;47.514;19.056;2022-07-21T08:55:36;4.15;;;2.40;;
50858;SDS011;36826;47.514;19.056;2022-07-21T08:58:07;4.60;;;2.45;;
50858;SDS011;36826;47.514;19.056;2022-07-21T09:00:37;2.63;;;2.25;;
50858;SDS011;36826;47.514;19.056;2022-07-21T09:03:15;2.55;;;2.17;;
50858;SDS011;36826;47.514;19.056;2022-07-21T09:08:37;3.15;;;1.80;;
50858;SDS011;36826;47.514;19.056;2022-07-21T09:16:37;3.60;;;2.00;;
50858;SDS011;36826;47.514;19.056;2022-07-21T09:19:16;3.63;;;2.20;;
50858;SDS011;36826;47.514;19.056;2022-07-21T09:21:45;4.68;;;2.00;;
50858;SDS011;36826;47.514;19.056;2022-07-21T09:24:19;5.28;;;2.50;;
50858;SDS011;36826;47.514;19.056;2022-07-21T09:26:58;2.70;;;2.17;;
50858;SDS011;36826;47.514;19.056;2022-07-21T09:29:24;3.20;;;2.25;;
50858;SDS011;36826;47.514;19.056;2022-07-21T09:31:50;5.97;;;1.80;;
50858;SDS011;36826;47.514;19.056;2022-07-21T09:34:16;2.92;;;2.30;;
50858;SDS011;36826;47.514;19.056;2022-07-21T09:36:57;3.10;;;2.10;;
50858;SDS011;36826;47.514;19.056;2022-07-21T09:39:42;3.35;;;1.75;;
50858;SDS011;36826;47.514;19.056;2022-07-21T09:42:21;3.85;;;2.00;;
50858;SDS011;36826;47.514;19.056;2022-07-21T09:44:52;3.53;;;1.98;;
50858;SDS011;36826;47.514;19.056;2022-07-21T09:47:22;3.97;;;2.13;;
50858;SDS011;36826;47.514;19.056;2022-07-21T09:49:49;3.97;;;2.00;;
50858;SDS011;36826;47.514;19.056;2022-07-21T09:52:26;3.95;;;1.73;;
50858;SDS011;36826;47.514;19.056;2022-07-21T09:54:54;3.38;;;2.20;;
50858;SDS011;36826;47.514;19.056;2022-07-21T09:57:25;4.50;;;2.10;;
50858;SDS011;36826;47.514;19.056;2022-07-21T09:59:51;4.30;;;1.90;;
50858;SDS011;36826;47.514;19.056;2022-07-21T10:02:18;2.83;;;2.10;;
50858;SDS011;36826;47.514;19.056;2022-07-21T10:04:47;4.88;;;2.67;;
50858;SDS011;36826;47.514;19.056;2022-07-21T10:07:16;3.30;;;2.28;;
50858;SDS011;36826;47.514;19.056;2022-07-21T10:09:44;4.18;;;2.40;;
50858;SDS011;36826;47.514;19.056;2022-07-21T10:12:09;4.22;;;2.60;;
50858;SDS011;36826;47.514;19.056;2022-07-21T10:14:35;5.03;;;2.67;;
50858;SDS011;36826;47.514;19.056;2022-07-21T10:17:01;6.72;;;3.00;;
50858;SDS011;36826;47.514;19.056;2022-07-21T10:19:32;5.43;;;2.60;;
50858;SDS011;36826;47.514;19.056;2022-07-21T10:24:47;4.65;;;2.42;;
50858;SDS011;36826;47.514;19.056;2022-07-21T10:27:14;3.55;;;2.25;;
50858;SDS011;36826;47.514;19.056;2022-07-21T10:32:24;3.15;;;2.20;;
50858;SDS011;36826;47.514;19.056;2022-07-21T10:34:52;5.50;;;2.47;;
50858;SDS011;36826;47.514;19.056;2022-07-21T10:42:43;7.05;;;2.10;;
50858;SDS011;36826;47.514;19.056;2022-07-21T10:47:58;3.38;;;2.00;;
50858;SDS011;36826;47.514;19.056;2022-07-21T10:53:14;4.72;;;2.03;;
50858;SDS011;36826;47.514;19.056;2022-07-21T10:55:48;6.60;;;1.98;;
50858;SDS011;36826;47.514;19.056;2022-07-21T10:58:27;6.72;;;2.13;;
50858;SDS011;36826;47.514;19.056;2022-07-21T11:03:27;2.63;;;1.90;;
50858;SDS011;36826;47.514;19.056;2022-07-21T11:08:42;4.10;;;2.00;;
50858;SDS011;36826;47.514;19.056;2022-07-21T11:19:30;6.07;;;1.85;;
50858;SDS011;36826;47.514;19.056;2022-07-21T11:24:49;3.60;;;1.73;;
50858;SDS011;36826;47.514;19.056;2022-07-21T11:27:17;2.83;;;1.58;;
50858;SDS011;36826;47.514;19.056;2022-07-21T11:29:47;3.70;;;1.40;;
50858;SDS011;36826;47.514;19.056;2022-07-21T11:32:15;6.03;;;1.63;;
50858;SDS011;36826;47.514;19.056;2022-07-21T11:34:44;5.72;;;1.67;;
50858;SDS011;36826;47.514;19.056;2022-07-21T11:37:14;4.38;;;1.80;;
50858;SDS011;36826;47.514;19.056;2022-07-21T11:39:41;4.75;;;1.70;;
50858;SDS011;36826;47.514;19.056;2022-07-21T11:42:11;3.80;;;1.75;;
50858;SDS011;36826;47.514;19.056;2022-07-21T11:44:39;4.95;;;1.58;;
50858;SDS011;36826;47.514;19.056;2022-07-21T11:49:32;5.70;;;1.48;;
50858;SDS011;36826;47.514;19.056;2022-07-21T11:54:26;5.47;;;1.70;;
50858;SDS011;36826;47.514;19.056;2022-07-21T11:57:08;4.32;;;1.85;;
50858;SDS011;36826;47.514;19.056;2022-07-21T11:59:35;4.43;;;1.70;;
50858;SDS011;36826;47.514;19.056;2022-07-21T12:02:04;5.32;;;1.55;;
50858;SDS011;36826;47.514;19.056;2022-07-21T12:07:00;4.22;;;1.60;;
50858;SDS011;36826;47.514;19.056;2022-07-21T12:09:28;3.72;;;1.80;;
50858;SDS011;36826;47.514;19.056;2022-07-21T12:11:53;4.55;;;2.00;;
50858;SDS011;36826;47.514;19.056;2022-07-21T12:14:19;2.88;;;1.70;;
50858;SDS011;36826;47.514;19.056;2022-07-21T12:16:49;3.10;;;1.60;;
50858;SDS011;36826;47.514;19.056;2022-07-21T12:19:16;4.60;;;1.70;;
50858;SDS011;36826;47.514;19.056;2022-07-21T12:21:46;3.58;;;1.65;;
50858;SDS011;36826;47.514;19.056;2022-07-21T12:24:14;3.92;;;1.73;;
50858;SDS011;36826;47.514;19.056;2022-07-21T12:26:40;4.07;;;1.73;;
50858;SDS011;36826;47.514;19.056;2022-07-21T12:29:06;11.30;;;2.20;;
50858;SDS011;36826;47.514;19.056;2022-07-21T12:31:33;6.32;;;2.00;;
50858;SDS011;36826;47.514;19.056;2022-07-21T12:34:10;5.07;;;1.60;;
50858;SDS011;36826;47.514;19.056;2022-07-21T12:36:40;3.35;;;1.70;;
50858;SDS011;36826;47.514;19.056;2022-07-21T12:39:13;3.60;;;1.75;;
50858;SDS011;36826;47.514;19.056;2022-07-21T12:41:59;7.20;;;1.77;;
50858;SDS011;36826;47.514;19.056;2022-07-21T12:44:25;6.80;;;2.20;;
50858;SDS011;36826;47.514;19.056;2022-07-21T12:46:51;5.30;;;1.60;;
50858;SDS011;36826;47.514;19.056;2022-07-21T12:49:17;3.95;;;2.03;;
50858;SDS011;36826;47.514;19.056;2022-07-21T12:51:42;4.50;;;2.47;;
50858;SDS011;36826;47.514;19.056;2022-07-21T12:54:21;5.93;;;2.03;;
50858;SDS011;36826;47.514;19.056;2022-07-21T12:56:46;6.38;;;2.63;;
50858;SDS011;36826;47.514;19.056;2022-07-21T12:59:12;4.32;;;1.80;;
50858;SDS011;36826;47.514;19.056;2022-07-21T13:01:39;7.35;;;2.20;;
50858;SDS011;36826;47.514;19.056;2022-07-21T13:04:06;5.32;;;2.05;;
50858;SDS011;36826;47.514;19.056;2022-07-21T13:06:31;4.28;;;1.70;;
50858;SDS011;36826;47.514;19.056;2022-07-21T13:08:57;2.85;;;1.60;;
50858;SDS011;36826;47.514;19.056;2022-07-21T13:11:23;3.30;;;1.70;;
50858;SDS011;36826;47.514;19.056;2022-07-21T13:13:49;5.10;;;1.73;;
50858;SDS011;36826;47.514;19.056;2022-07-21T13:16:16;4.35;;;1.73;;
50858;SDS011;36826;47.514;19.056;2022-07-21T13:18:42;5.20;;;1.40;;
50858;SDS011;36826;47.514;19.056;2022-07-21T13:21:08;5.72;;;1.63;;
50858;SDS011;36826;47.514;19.056;2022-07-21T13:23:33;8.55;;;1.75;;
50858;SDS011;36826;47.514;19.056;2022-07-21T13:26:00;5.32;;;1.42;;
50858;SDS011;36826;47.514;19.056;2022-07-21T13:28:25;4.72;;;1.75;;
50858;SDS011;36826;47.514;19.056;2022-07-21T13:30:51;5.93;;;1.45;;
50858;SDS011;36826;47.514;19.056;2022-07-21T13:33:16;5.07;;;1.60;;
50858;SDS011;36826;47.514;19.056;2022-07-21T13:35:42;6.95;;;1.45;;
50858;SDS011;36826;47.514;19.056;2022-07-21T13:38:08;3.28;;;1.60;;
50858;SDS011;36826;47.514;19.056;2022-07-21T13:40:34;6.67;;;1.60;;
50858;SDS011;36826;47.514;19.056;2022-07-21T13:43:00;2.92;;;1.40;;
50858;SDS011;36826;47.514;19.056;2022-07-21T13:45:25;3.53;;;1.48;;
50858;SDS011;36826;47.514;19.056;2022-07-21T13:47:51;4.82;;;1.60;;
50858;SDS011;36826;47.514;19.056;2022-07-21T13:50:16;3.72;;;1.40;;
50858;SDS011;36826;47.514;19.056;2022-07-21T13:52:42;5.40;;;1.50;;
50858;SDS011;36826;47.514;19.056;2022-07-21T13:55:08;7.00;;;1.30;;
50858;SDS011;36826;47.514;19.056;2022-07-21T13:57:35;5.88;;;1.67;;
50858;SDS011;36826;47.514;19.056;2022-07-21T14:00:03;7.57;;;1.85;;
50858;SDS011;36826;47.514;19.056;2022-07-21T14:02:30;3.00;;;1.70;;
50858;SDS011;36826;47.514;19.056;2022-07-21T14:04:59;7.30;;;1.90;;
50858;SDS011;36826;47.514;19.056;2022-07-21T14:07:24;6.25;;;1.65;;
50858;SDS011;36826;47.514;19.056;2022-07-21T14:09:50;4.38;;;1.33;;
50858;SDS011;36826;47.514;19.056;2022-07-21T14:12:15;4.78;;;1.60;;
50858;SDS011;36826;47.514;19.056;2022-07-21T14:14:43;7.38;;;1.17;;
50858;SDS011;36826;47.514;19.056;2022-07-21T14:17:12;5.65;;;1.40;;
50858;SDS011;36826;47.514;19.056;2022-07-21T14:19:38;5.65;;;1.13;;
50858;SDS011;36826;47.514;19.056;2022-07-21T14:22:03;4.68;;;1.30;;
50858;SDS011;36826;47.514;19.056;2022-07-21T14:24:29;6.05;;;1.27;;
50858;SDS011;36826;47.514;19.056;2022-07-21T14:27:13;5.50;;;1.20;;
50858;SDS011;36826;47.514;19.056;2022-07-21T14:29:39;3.13;;;1.20;;
50858;SDS011;36826;47.514;19.056;2022-07-21T14:32:04;4.68;;;1.20;;
50858;SDS011;36826;47.514;19.056;2022-07-21T14:34:30;4.75;;;1.30;;
50858;SDS011;36826;47.514;19.056;2022-07-21T14:36:55;4.80;;;1.20;;
50858;SDS011;36826;47.514;19.056;2022-07-21T14:39:21;4.03;;;1.40;;
50858;SDS011;36826;47.514;19.056;2022-07-21T14:41:46;4.32;;;1.02;;
50858;SDS011;36826;47.514;19.056;2022-07-21T14:44:12;4.57;;;1.27;;
50858;SDS011;36826;47.514;19.056;2022-07-21T14:46:38;4.07;;;1.40;;
50858;SDS011;36826;47.514;19.056;2022-07-21T14:49:04;3.75;;;1.15;;
50858;SDS011;36826;47.514;19.056;2022-07-21T14:51:29;4.80;;;1.10;;
50858;SDS011;36826;47.514;19.056;2022-07-21T14:53:55;3.75;;;1.52;;
50858;SDS011;36826;47.514;19.056;2022-07-21T14:56:20;4.90;;;1.23;;
50858;SDS011;36826;47.514;19.056;2022-07-21T14:58:46;3.70;;;1.17;;
50858;SDS011;36826;47.514;19.056;2022-07-21T15:01:11;1.67;;;0.93;;
50858;SDS011;36826;47.514;19.056;2022-07-21T15:03:37;4.25;;;1.15;;
50858;SDS011;36826;47.514;19.056;2022-07-21T15:06:03;6.32;;;1.30;;
50858;SDS011;36826;47.514;19.056;2022-07-21T15:10:55;5.40;;;1.20;;
50858;SDS011;36826;47.514;19.056;2022-07-21T15:13:21;7.03;;;1.30;;
50858;SDS011;36826;47.514;19.056;2022-07-21T15:15:46;6.13;;;1.45;;
50858;SDS011;36826;47.514;19.056;2022-07-21T15:18:11;5.43;;;1.10;;
50858;SDS011;36826;47.514;19.056;2022-07-21T15:20:38;3.38;;;1.20;;
50858;SDS011;36826;47.514;19.056;2022-07-21T15:23:03;2.58;;;1.17;;
50858;SDS011;36826;47.514;19.056;2022-07-21T15:25:29;5.72;;;1.30;;
50858;SDS011;36826;47.514;19.056;2022-07-21T15:27:54;6.05;;;1.33;;
50858;SDS011;36826;47.514;19.056;2022-07-21T15:30:20;5.78;;;1.40;;
50858;SDS011;36826;47.514;19.056;2022-07-21T15:32:45;3.65;;;1.23;;
50858;SDS011;36826;47.514;19.056;2022-07-21T15:35:11;4.50;;;1.52;;